Time;durP1;ratioP1;P1;durP2;ratioP2;P2;SDS_P1;SDS_P2;PMS_P1;PMS_P2;Temp;Humidity;BMP_temperature;BMP_pressure;BME280_temperature;BME280_humidity;BME280_pressure;Samples;Min_cycle;Max_cycle;Signal;HPM_P1;HPM_P2
2023/03/07 00:00:45;;;;;;;0.00;0.00;;;4.40;99.90;;;;;;5103395;28;20023;-75
2023/03/07 00:03:13;;;;;;;0.38;0.38;;;4.40;99.90;;;;;;5103130;28;20024;-76
2023/03/07 00:05:39;;;;;;;0.10;0.10;;;4.40;99.90;;;;;;5103382;28;20039;-76
2023/03/07 00:08:06;;;;;;;2.63;2.53;;;4.30;99.90;;;;;;5104703;28;20030;-76
2023/03/07 00:10:32;;;;;;;0.10;0.10;;;4.30;99.90;;;;;;5068669;28;20034;-76
2023/03/07 00:12:58;;;;;;;0.00;0.00;;;4.20;99.90;;;;;;5103648;28;20397;-75
2023/03/07 00:15:24;;;;;;;0.00;0.00;;;4.20;99.90;;;;;;5105070;28;20024;-75
2023/03/07 00:17:51;;;;;;;0.10;0.10;;;;;;;;;;5103852;28;20199;-76
2023/03/07 00:20:17;;;;;;;0.08;0.08;;;;;;;;;;5103667;28;20191;-76
2023/03/07 00:22:45;;;;;;;0.43;0.43;;;4.30;99.90;;;;;;5102710;28;20035;-76
2023/03/07 00:25:12;;;;;;;0.10;0.10;;;;;;;;;;5102926;28;20031;-76
2023/03/07 00:27:38;;;;;;;12.77;11.90;;;4.00;99.90;;;;;;5103063;28;20111;-76
2023/03/07 00:30:04;;;;;;;0.10;0.10;;;4.50;99.90;;;;;;5102673;28;20570;-76
2023/03/07 00:32:31;;;;;;;0.10;0.10;;;;;;;;;;5104170;28;20091;-76
2023/03/07 00:34:57;;;;;;;2.42;2.33;;;3.90;99.90;;;;;;5084808;28;20085;-76
2023/03/07 00:37:23;;;;;;;9.30;8.77;;;;;;;;;;5102581;28;20022;-76
2023/03/07 00:39:49;;;;;;;0.10;0.10;;;;;;;;;;5084201;28;20059;-76
2023/03/07 00:42:16;;;;;;;0.10;0.10;;;3.90;99.90;;;;;;5087768;28;20039;-76
2023/03/07 00:44:42;;;;;;;2.00;1.95;;;;;;;;;;5107960;28;20053;-76
2023/03/07 00:47:09;;;;;;;0.00;0.00;;;3.80;99.90;;;;;;5112549;28;20023;-76
2023/03/07 00:49:35;;;;;;;0.10;0.10;;;3.90;99.90;;;;;;5110745;28;20055;-76
2023/03/07 00:52:01;;;;;;;0.10;0.10;;;5.70;99.90;;;;;;5107292;28;20512;-76
2023/03/07 00:54:27;;;;;;;0.20;0.20;;;3.80;99.90;;;;;;5106831;28;20581;-76
2023/03/07 00:56:52;;;;;;;23.60;20.17;;;3.80;99.90;;;;;;5105286;28;20513;-75
2023/03/07 00:59:18;;;;;;;0.10;0.10;;;3.70;99.90;;;;;;5105101;28;20020;-76
2023/03/07 01:01:44;;;;;;;0.10;0.10;;;3.70;99.90;;;;;;5104929;28;20447;-76
2023/03/07 01:04:10;;;;;;;0.10;0.10;;;3.60;99.90;;;;;;5086698;28;20035;-76
2023/03/07 01:06:36;;;;;;;0.10;0.10;;;3.60;99.90;;;;;;5104634;28;20052;-76
2023/03/07 01:09:06;;;;;;;7.80;3.30;;;3.60;99.90;;;;;;5102410;28;20023;-76
2023/03/07 01:11:33;;;;;;;0.10;0.10;;;3.50;99.90;;;;;;5104132;28;20641;-75
2023/03/07 01:14:01;;;;;;;0.00;0.00;;;3.50;99.90;;;;;;5103993;28;20055;-75
2023/03/07 01:16:34;;;;;;;0.10;0.10;;;3.70;99.90;;;;;;5104010;27;20353;-76
2023/03/07 01:19:03;;;;;;;0.10;0.10;;;3.40;99.90;;;;;;5084883;28;20433;-75
2023/03/07 01:21:33;;;;;;;0.10;0.10;;;3.40;99.90;;;;;;5103696;28;20522;-75
2023/03/07 01:23:59;;;;;;;0.10;0.10;;;3.90;99.90;;;;;;5103906;28;20166;-75
2023/03/07 01:26:30;;;;;;;0.00;0.00;;;3.40;99.90;;;;;;5104961;28;20228;-77
2023/03/07 01:28:59;;;;;;;0.10;0.10;;;3.30;99.90;;;;;;5104034;28;20020;-75
2023/03/07 01:31:26;;;;;;;3.53;3.40;;;3.30;99.90;;;;;;5103992;28;20107;-76
2023/03/07 01:33:53;;;;;;;0.10;0.10;;;3.30;99.90;;;;;;5106968;28;20062;-76
2023/03/07 01:36:28;;;;;;;0.10;0.10;;;3.30;99.90;;;;;;5107692;28;20106;-76
2023/03/07 01:38:55;;;;;;;0.00;0.00;;;3.20;99.90;;;;;;5106990;28;20031;-76
2023/03/07 01:41:21;;;;;;;0.10;0.10;;;3.30;99.90;;;;;;5090688;28;20655;-75
2023/03/07 01:43:47;;;;;;;0.00;0.00;;;3.30;99.90;;;;;;5108731;28;20106;-76
2023/03/07 01:46:15;;;;;;;0.10;0.10;;;3.20;99.90;;;;;;5107889;28;20104;-76
2023/03/07 01:48:47;;;;;;;0.10;0.10;;;3.20;99.90;;;;;;5102609;28;20257;-75
2023/03/07 01:51:16;;;;;;;0.10;0.10;;;3.20;99.90;;;;;;5103320;28;20080;-76
2023/03/07 01:53:42;;;;;;;5.32;5.00;;;;;;;;;;5107676;28;20093;-75
2023/03/07 01:56:09;;;;;;;0.20;0.20;;;3.10;99.90;;;;;;5105959;28;20034;-76
2023/03/07 01:58:37;;;;;;;0.10;0.10;;;3.00;99.90;;;;;;5112281;28;20074;-76
2023/03/07 02:01:09;;;;;;;0.10;0.10;;;3.00;99.90;;;;;;5108799;28;20034;-76
2023/03/07 02:04:14;;;;;;;0.47;0.47;;;3.00;99.90;;;;;;5114314;28;20149;-75
2023/03/07 02:06:40;;;;;;;0.43;0.43;;;3.00;99.90;;;;;;5014126;28;20128;-76
2023/03/07 02:09:12;;;;;;;1.50;1.50;;;2.90;99.90;;;;;;5023065;28;20036;-76
2023/03/07 02:11:44;;;;;;;0.10;0.10;;;2.90;99.90;;;;;;5025077;28;20060;-75
2023/03/07 02:14:10;;;;;;;0.10;0.10;;;2.90;99.90;;;;;;5024183;28;20206;-75
2023/03/07 02:16:38;;;;;;;0.10;0.10;;;2.80;99.90;;;;;;5023944;28;20038;-76
2023/03/07 02:19:19;;;;;;;0.10;0.10;;;2.80;99.90;;;;;;5023700;28;20028;-76
2023/03/07 02:22:12;;;;;;;1.02;1.02;;;2.80;99.90;;;;;;5022787;28;20029;-76
2023/03/07 02:24:47;;;;;;;0.10;0.10;;;2.70;99.90;;;;;;5020757;28;20084;-75
2023/03/07 02:27:14;;;;;;;0.10;0.10;;;2.60;99.90;;;;;;5023324;28;20582;-75
2023/03/07 02:29:39;;;;;;;0.10;0.10;;;2.60;99.90;;;;;;5023633;28;20041;-76
2023/03/07 02:32:06;;;;;;;0.20;0.20;;;2.60;99.90;;;;;;5018434;28;20021;-76
2023/03/07 02:34:32;;;;;;;8.88;5.35;;;2.60;99.90;;;;;;5021328;28;20026;-76
2023/03/07 02:37:04;;;;;;;0.10;0.10;;;2.50;99.90;;;;;;5019865;28;20077;-76
2023/03/07 02:39:31;;;;;;;0.20;0.20;;;2.50;99.90;;;;;;5020690;28;20025;-76
2023/03/07 02:42:02;;;;;;;0.10;0.10;;;2.60;99.90;;;;;;5055673;28;20142;-76
2023/03/07 02:44:28;;;;;;;0.08;0.08;;;2.60;99.90;;;;;;5105809;28;20027;-76
2023/03/07 02:46:54;;;;;;;0.08;0.08;;;2.60;99.90;;;;;;5105132;28;20023;-76
2023/03/07 02:49:19;;;;;;;0.00;0.00;;;2.60;99.90;;;;;;5101599;28;20020;-76
2023/03/07 02:51:48;;;;;;;2.38;2.28;;;2.50;99.90;;;;;;5101321;28;20266;-76
2023/03/07 02:54:14;;;;;;;0.10;0.10;;;;;;;;;;5101701;28;20024;-76
2023/03/07 02:56:41;;;;;;;1.17;1.17;;;2.60;99.90;;;;;;5100891;28;20107;-76
2023/03/07 02:59:07;;;;;;;0.10;0.10;;;2.50;99.90;;;;;;5100587;28;20027;-76
2023/03/07 03:01:32;;;;;;;0.85;0.85;;;2.60;99.90;;;;;;5101503;28;20032;-75
2023/03/07 03:03:58;;;;;;;0.10;0.10;;;2.70;99.90;;;;;;5099522;28;20031;-76
2023/03/07 03:06:25;;;;;;;0.10;0.10;;;3.00;99.90;;;;;;5098989;28;20334;-76
2023/03/07 03:08:51;;;;;;;0.10;0.10;;;-0.60;99.90;;;;;;5099053;28;20552;-76
2023/03/07 03:11:16;;;;;;;0.10;0.10;;;3.30;99.90;;;;;;5098884;28;20099;-76
2023/03/07 03:13:43;;;;;;;0.10;0.10;;;;;;;;;;5100777;28;20039;-76
2023/03/07 03:16:09;;;;;;;0.05;0.05;;;;;;;;;;5099147;28;20020;-75
2023/03/07 03:18:37;;;;;;;0.10;0.10;;;;;;;;;;5099150;28;20028;-75
2023/03/07 03:21:08;;;;;;;15.05;5.47;;;3.00;99.90;;;;;;5099265;28;20304;-76
2023/03/07 03:23:33;;;;;;;0.10;0.10;;;3.00;99.90;;;;;;5101517;28;20028;-75
2023/03/07 03:26:03;;;;;;;0.05;0.05;;;3.00;99.90;;;;;;5100327;28;20051;-76
2023/03/07 03:28:30;;;;;;;0.80;0.80;;;3.00;99.90;;;;;;5099017;28;20063;-76
2023/03/07 03:30:58;;;;;;;0.10;0.10;;;3.10;99.90;;;;;;5099311;28;20028;-76
2023/03/07 03:33:25;;;;;;;0.10;0.10;;;3.10;99.90;;;;;;5099211;28;20208;-75
2023/03/07 03:35:50;;;;;;;0.00;0.00;;;3.10;99.90;;;;;;5081930;28;20115;-75
2023/03/07 03:38:16;;;;;;;0.10;0.10;;;;;;;;;;5099969;28;20514;-75
2023/03/07 03:40:42;;;;;;;0.10;0.10;;;3.20;99.90;;;;;;5099139;28;20065;-76
2023/03/07 03:43:08;;;;;;;0.00;0.00;;;3.10;99.90;;;;;;5099457;28;20249;-76
2023/03/07 03:45:34;;;;;;;0.10;0.10;;;;;;;;;;5099844;28;20217;-76
2023/03/07 03:48:00;;;;;;;0.03;0.03;;;3.20;99.90;;;;;;5101409;28;20023;-76
2023/03/07 03:50:25;;;;;;;0.10;0.10;;;3.70;99.90;;;;;;5106936;28;20024;-76
2023/03/07 03:52:54;;;;;;;0.10;0.10;;;3.20;99.90;;;;;;5106634;28;20016;-75
2023/03/07 03:55:19;;;;;;;0.00;0.00;;;3.30;99.90;;;;;;5106479;28;20024;-76
2023/03/07 03:57:45;;;;;;;0.00;0.00;;;3.30;99.90;;;;;;5104279;28;20054;-76
2023/03/07 04:00:14;;;;;;;0.10;0.10;;;3.20;99.90;;;;;;5101733;28;20066;-76
2023/03/07 04:02:40;;;;;;;0.08;0.08;;;3.30;99.90;;;;;;5104055;28;20065;-76
2023/03/07 04:05:07;;;;;;;0.17;0.17;;;3.40;99.90;;;;;;5104460;28;20035;-76
2023/03/07 04:07:33;;;;;;;0.10;0.10;;;3.40;99.90;;;;;;5105675;28;20031;-76
2023/03/07 04:10:00;;;;;;;0.10;0.10;;;3.30;99.90;;;;;;5104118;28;20287;-76
2023/03/07 04:12:26;;;;;;;0.90;0.90;;;3.20;99.90;;;;;;5105081;28;20502;-75
2023/03/07 04:14:52;;;;;;;0.10;0.10;;;3.40;99.90;;;;;;5107745;28;20185;-76
2023/03/07 04:17:17;;;;;;;0.10;0.10;;;3.40;99.90;;;;;;5105516;28;20176;-76
2023/03/07 04:19:43;;;;;;;0.10;0.10;;;3.50;99.90;;;;;;5105382;28;20031;-76
2023/03/07 04:22:09;;;;;;;0.47;0.47;;;3.50;99.90;;;;;;5105135;28;20039;-76
2023/03/07 04:24:35;;;;;;;0.00;0.00;;;3.60;99.90;;;;;;5103592;28;20534;-76
2023/03/07 04:27:00;;;;;;;0.13;0.13;;;4.30;99.90;;;;;;5104453;28;20035;-76
2023/03/07 04:29:29;;;;;;;0.00;0.00;;;3.60;99.90;;;;;;5103228;28;20103;-77
2023/03/07 04:31:56;;;;;;;0.00;0.00;;;3.70;99.90;;;;;;5103839;28;20024;-76
2023/03/07 04:34:22;;;;;;;0.10;0.10;;;;;;;;;;5103210;28;20043;-76
2023/03/07 04:36:47;;;;;;;0.00;0.00;;;3.70;99.90;;;;;;5085769;28;20032;-75
2023/03/07 04:39:13;;;;;;;0.15;0.15;;;2.40;99.90;;;;;;5103426;28;20221;-76
2023/03/07 04:41:39;;;;;;;0.25;0.25;;;3.80;99.90;;;;;;5103686;28;20040;-76
2023/03/07 04:44:05;;;;;;;0.10;0.10;;;;;;;;;;5103095;28;20508;-76
2023/03/07 04:46:32;;;;;;;0.10;0.10;;;3.90;99.90;;;;;;5102685;28;20020;-76
2023/03/07 04:48:58;;;;;;;0.00;0.00;;;;;;;;;;5102468;28;20039;-76
2023/03/07 04:51:24;;;;;;;0.05;0.05;;;;;;;;;;5102568;28;20201;-76
2023/03/07 04:53:50;;;;;;;0.00;0.00;;;4.00;99.90;;;;;;5084196;28;20023;-76
2023/03/07 04:56:15;;;;;;;7.75;7.47;;;4.00;99.90;;;;;;5085451;28;20638;-76
2023/03/07 04:58:42;;;;;;;0.00;0.00;;;4.20;99.90;;;;;;5103247;28;20151;-76
2023/03/07 05:01:08;;;;;;;0.10;0.10;;;;;;;;;;5103295;28;20612;-75
2023/03/07 05:03:35;;;;;;;0.10;0.10;;;4.00;99.90;;;;;;5102545;28;20030;-76
2023/03/07 05:06:06;;;;;;;0.00;0.00;;;4.50;99.90;;;;;;5084743;28;20410;-76
2023/03/07 05:08:33;;;;;;;0.00;0.00;;;;;;;;;;5102738;28;20084;-75
2023/03/07 05:11:00;;;;;;;0.00;0.00;;;;;;;;;;5103326;28;20019;-75
2023/03/07 05:13:26;;;;;;;0.10;0.10;;;;;;;;;;5104238;28;20031;-76
2023/03/07 05:15:54;;;;;;;1.55;1.55;;;4.00;99.90;;;;;;5107312;28;20205;-76
2023/03/07 05:18:20;;;;;;;0.10;0.10;;;;;;;;;;5103655;28;20031;-75
2023/03/07 05:20:45;;;;;;;0.82;0.82;;;4.00;99.90;;;;;;5096649;28;20031;-76
2023/03/07 05:23:13;;;;;;;0.00;0.00;;;4.00;99.90;;;;;;5111769;28;20027;-76
2023/03/07 05:25:38;;;;;;;0.10;0.10;;;4.00;99.90;;;;;;5098316;28;20109;-76
2023/03/07 05:28:05;;;;;;;0.10;0.10;;;4.00;99.90;;;;;;5114163;28;20051;-76
2023/03/07 05:30:32;;;;;;;0.08;0.08;;;4.00;99.90;;;;;;5110979;28;20034;-76
2023/03/07 05:32:59;;;;;;;0.10;0.10;;;4.00;99.90;;;;;;5113117;28;20231;-76
2023/03/07 05:35:25;;;;;;;0.10;0.10;;;4.00;99.90;;;;;;5112895;28;20488;-76
2023/03/07 05:37:51;;;;;;;0.10;0.10;;;4.00;99.90;;;;;;5106308;28;20043;-75
2023/03/07 05:40:18;;;;;;;0.05;0.05;;;4.00;99.90;;;;;;5109868;28;20298;-76
2023/03/07 05:42:44;;;;;;;0.00;0.00;;;4.00;99.90;;;;;;5106432;28;20092;-76
2023/03/07 05:45:11;;;;;;;0.10;0.10;;;3.90;99.90;;;;;;5107637;28;20051;-76
2023/03/07 05:47:37;;;;;;;0.00;0.00;;;3.90;99.90;;;;;;5107211;28;20028;-75
2023/03/07 05:50:04;;;;;;;0.10;0.10;;;3.90;99.90;;;;;;5101733;28;20020;-76
2023/03/07 05:52:30;;;;;;;0.00;0.00;;;3.90;99.90;;;;;;5102614;28;20020;-75
2023/03/07 05:54:56;;;;;;;0.10;0.10;;;3.80;99.90;;;;;;5065601;28;20395;-75
2023/03/07 05:57:22;;;;;;;0.00;0.00;;;3.80;99.90;;;;;;5101614;28;20020;-76
2023/03/07 05:59:48;;;;;;;0.00;0.00;;;;;;;;;;5101202;28;20031;-76
2023/03/07 06:02:14;;;;;;;0.10;0.10;;;3.70;99.90;;;;;;5102360;28;20394;-75
2023/03/07 06:04:40;;;;;;;0.03;0.03;;;3.70;99.90;;;;;;5086898;28;20115;-75
2023/03/07 06:07:06;;;;;;;0.00;0.00;;;3.60;99.90;;;;;;5109737;28;20513;-76
2023/03/07 06:09:32;;;;;;;0.05;0.05;;;3.70;99.90;;;;;;5088595;28;20042;-76
2023/03/07 06:11:57;;;;;;;0.10;0.10;;;3.70;99.90;;;;;;5108601;28;20028;-75
2023/03/07 06:14:23;;;;;;;0.00;0.00;;;3.70;99.90;;;;;;5108304;28;20103;-76
2023/03/07 06:16:49;;;;;;;0.10;0.10;;;3.70;99.90;;;;;;5090730;28;20570;-76
2023/03/07 06:19:17;;;;;;;0.00;0.00;;;3.80;99.90;;;;;;5109982;28;20023;-76
2023/03/07 06:21:44;;;;;;;0.05;0.05;;;3.80;99.90;;;;;;5112443;28;20526;-76
2023/03/07 06:24:12;;;;;;;9.70;6.90;;;3.90;99.90;;;;;;5109623;28;20031;-76
2023/03/07 06:26:39;;;;;;;0.00;0.00;;;3.90;99.90;;;;;;5109486;28;20023;-76
2023/03/07 06:29:05;;;;;;;0.00;0.00;;;3.80;99.90;;;;;;5110684;28;20043;-76
2023/03/07 06:31:31;;;;;;;0.10;0.10;;;4.10;99.90;;;;;;5111690;28;20020;-76
2023/03/07 06:33:56;;;;;;;0.10;0.10;;;4.20;99.90;;;;;;5106201;28;20629;-76
2023/03/07 06:36:23;;;;;;;0.00;0.00;;;4.40;99.90;;;;;;5111908;28;20038;-75
2023/03/07 06:38:49;;;;;;;0.10;0.10;;;4.30;99.90;;;;;;5112753;28;20106;-77
2023/03/07 06:41:16;;;;;;;1.83;1.83;;;4.60;99.90;;;;;;5109330;28;20075;-76
2023/03/07 06:43:44;;;;;;;0.10;0.10;;;;;;;;;;5094083;28;20389;-76
2023/03/07 06:46:09;;;;;;;2.67;2.55;;;4.80;99.90;;;;;;5110439;28;20231;-75
2023/03/07 06:48:35;;;;;;;0.00;0.00;;;4.90;99.90;;;;;;5110065;28;20646;-76
2023/03/07 06:51:26;;;;;;;0.00;0.00;;;5.00;99.90;;;;;;5116763;28;20477;-75
2023/03/07 06:53:52;;;;;;;0.00;0.00;;;;;;;;;;5110701;28;20024;-77
2023/03/07 06:56:18;;;;;;;1.38;1.38;;;5.30;99.90;;;;;;5089716;28;20320;-77
2023/03/07 06:58:45;;;;;;;0.10;0.10;;;5.50;99.90;;;;;;5106910;28;20148;-77
2023/03/07 07:01:19;;;;;;;0.10;0.10;;;6.60;99.90;;;;;;5106672;28;20036;-76
2023/03/07 07:03:45;;;;;;;0.00;0.00;;;5.70;99.90;;;;;;5104412;28;20046;-76
2023/03/07 07:06:11;;;;;;;0.68;0.68;;;5.90;99.90;;;;;;5108077;28;20414;-75
2023/03/07 07:08:38;;;;;;;0.85;0.85;;;6.00;99.90;;;;;;5104445;28;20322;-76
2023/03/07 07:11:04;;;;;;;0.25;0.25;;;5.80;99.90;;;;;;5108185;28;20012;-76
2023/03/07 07:13:30;;;;;;;0.10;0.10;;;6.50;99.90;;;;;;5107202;28;20094;-76
2023/03/07 07:16:04;;;;;;;0.10;0.10;;;6.60;99.90;;;;;;5110493;28;20027;-76
2023/03/07 07:18:30;;;;;;;0.10;0.10;;;6.90;99.90;;;;;;5107708;28;20027;-75
2023/03/07 07:20:56;;;;;;;0.00;0.00;;;7.20;99.90;;;;;;5105079;28;20122;-76
2023/03/07 07:23:22;;;;;;;0.10;0.10;;;7.50;99.90;;;;;;5102528;28;20059;-76
2023/03/07 07:25:48;;;;;;;0.10;0.10;;;7.70;99.90;;;;;;5101906;28;20020;-76
2023/03/07 07:28:14;;;;;;;0.10;0.10;;;7.80;99.90;;;;;;5105471;28;20231;-76
2023/03/07 07:30:40;;;;;;;0.10;0.10;;;;;;;;;;5106642;28;20233;-76
2023/03/07 07:33:06;;;;;;;0.10;0.10;;;;;;;;;;5108049;28;20046;-76
2023/03/07 07:35:32;;;;;;;0.10;0.10;;;8.30;99.90;;;;;;5104667;28;20027;-77
2023/03/07 07:37:57;;;;;;;0.10;0.10;;;8.40;99.90;;;;;;5103186;28;20035;-76
2023/03/07 07:40:23;;;;;;;0.10;0.10;;;8.10;99.90;;;;;;5102766;28;20020;-75
2023/03/07 07:42:53;;;;;;;0.10;0.10;;;8.60;99.90;;;;;;5101981;28;20084;-76
2023/03/07 07:45:23;;;;;;;0.13;0.13;;;8.70;99.90;;;;;;5104961;28;20069;-76
2023/03/07 07:47:50;;;;;;;0.10;0.10;;;8.90;99.90;;;;;;5106107;28;20056;-76
2023/03/07 07:50:20;;;;;;;0.20;0.20;;;9.10;99.90;;;;;;5107974;28;20569;-76
2023/03/07 07:52:47;;;;;;;0.10;0.10;;;9.30;99.90;;;;;;5109652;28;20058;-76
2023/03/07 07:55:14;;;;;;;0.10;0.10;;;9.40;99.90;;;;;;5115877;28;20080;-76
2023/03/07 07:57:42;;;;;;;0.10;0.10;;;9.40;99.90;;;;;;5115844;28;20313;-76
2023/03/07 08:00:10;;;;;;;0.10;0.10;;;9.50;99.90;;;;;;5095152;28;20024;-76
2023/03/07 08:02:37;;;;;;;1.02;1.02;;;9.60;99.90;;;;;;5112536;28;20071;-76
2023/03/07 08:05:11;;;;;;;0.10;0.10;;;9.70;99.90;;;;;;5111799;28;20015;-76
2023/03/07 08:07:37;;;;;;;0.20;0.20;;;9.80;99.90;;;;;;5076308;28;20074;-77
2023/03/07 08:10:03;;;;;;;0.20;0.20;;;10.00;99.90;;;;;;5113049;28;20467;-77
2023/03/07 08:12:28;;;;;;;0.20;0.20;;;10.10;99.90;;;;;;5112587;28;20015;-76
2023/03/07 08:14:55;;;;;;;0.10;0.10;;;10.30;99.90;;;;;;5110267;28;20032;-75
2023/03/07 08:17:21;;;;;;;0.20;0.20;;;10.40;99.90;;;;;;5110997;28;20244;-76
2023/03/07 08:19:47;;;;;;;0.10;0.10;;;10.50;99.20;;;;;;5114428;28;20390;-77
2023/03/07 08:22:19;;;;;;;0.20;0.20;;;10.60;98.90;;;;;;5109513;28;20062;-76
2023/03/07 08:24:46;;;;;;;0.17;0.17;;;10.80;98.70;;;;;;5112589;28;20506;-76
2023/03/07 08:27:12;;;;;;;0.10;0.10;;;11.10;97.50;;;;;;5111757;28;20019;-76
2023/03/07 08:29:38;;;;;;;0.20;0.20;;;11.30;94.90;;;;;;5110588;28;20281;-77
2023/03/07 08:32:04;;;;;;;0.20;0.20;;;11.30;93.70;;;;;;5106952;28;20032;-77
2023/03/07 08:34:32;;;;;;;0.10;0.10;;;11.40;94.00;;;;;;5113173;28;20047;-76
2023/03/07 08:36:59;;;;;;;0.15;0.15;;;11.30;93.20;;;;;;5109713;28;20022;-75
2023/03/07 08:39:25;;;;;;;0.15;0.15;;;11.30;93.30;;;;;;5112732;28;20216;-77
2023/03/07 08:41:50;;;;;;;0.20;0.20;;;11.40;94.40;;;;;;5110632;28;20051;-76
2023/03/07 08:44:22;;;;;;;0.20;0.20;;;11.40;94.40;;;;;;5114087;28;20375;-76
2023/03/07 08:46:48;;;;;;;0.20;0.20;;;11.40;94.80;;;;;;5113468;28;20074;-76
2023/03/07 08:49:14;;;;;;;0.15;0.15;;;11.40;93.70;;;;;;5114416;28;20028;-76
2023/03/07 08:51:40;;;;;;;0.13;0.13;;;11.40;94.50;;;;;;5105075;28;20088;-76
2023/03/07 08:54:06;;;;;;;0.20;0.20;;;11.20;94.70;;;;;;5101294;28;20043;-76
2023/03/07 08:56:31;;;;;;;0.15;0.15;;;11.30;95.30;;;;;;5104748;28;20027;-75
2023/03/07 08:58:57;;;;;;;0.28;0.28;;;11.20;94.60;;;;;;5102836;28;20036;-76
2023/03/07 09:01:23;;;;;;;0.20;0.20;;;11.20;96.10;;;;;;5102261;28;20477;-76
2023/03/07 09:03:49;;;;;;;7.40;6.85;;;11.30;95.20;;;;;;5102132;28;20662;-76
2023/03/07 09:06:19;;;;;;;0.20;0.20;;;11.30;94.30;;;;;;5103796;28;20479;-77
2023/03/07 09:08:46;;;;;;;0.17;0.17;;;11.20;92.60;;;;;;5104217;28;20108;-76
2023/03/07 09:11:12;;;;;;;0.17;0.17;;;11.10;93.90;;;;;;5086417;28;20189;-75
2023/03/07 09:13:38;;;;;;;0.20;0.20;;;11.00;92.90;;;;;;5104729;28;20031;-75
2023/03/07 09:16:08;;;;;;;0.20;0.20;;;11.10;93.10;;;;;;5102401;28;20585;-81
2023/03/07 09:18:35;;;;;;;0.20;0.20;;;11.20;93.90;;;;;;5103232;28;20252;-76
2023/03/07 09:21:05;;;;;;;0.20;0.20;;;11.30;93.10;;;;;;5085017;28;20027;-77
2023/03/07 09:23:31;;;;;;;0.10;0.10;;;11.30;91.90;;;;;;5102502;28;20039;-76
2023/03/07 09:26:01;;;;;;;0.20;0.20;;;11.50;92.60;;;;;;5102062;28;20103;-76
2023/03/07 09:28:27;;;;;;;0.10;0.10;;;11.30;91.30;;;;;;5105490;28;20241;-75
2023/03/07 09:30:55;;;;;;;0.20;0.20;;;11.40;92.90;;;;;;5103715;28;20247;-75
2023/03/07 09:33:20;;;;;;;0.20;0.20;;;11.30;91.70;;;;;;5102680;28;20379;-76
2023/03/07 09:35:46;;;;;;;0.20;0.20;;;11.50;92.90;;;;;;5104507;28;20451;-76
2023/03/07 09:38:13;;;;;;;0.20;0.20;;;11.80;92.80;;;;;;5102826;28;20101;-76
2023/03/07 09:40:39;;;;;;;0.20;0.20;;;12.10;92.60;;;;;;5103627;28;20019;-77
2023/03/07 09:43:20;;;;;;;0.20;0.20;;;12.30;92.30;;;;;;5099935;28;20081;-76
2023/03/07 09:45:52;;;;;;;0.20;0.20;;;12.40;89.20;;;;;;5099382;28;20076;-76
2023/03/07 09:48:37;;;;;;;0.20;0.20;;;12.50;90.00;;;;;;5098704;28;20024;-76
2023/03/07 09:51:11;;;;;;;0.20;0.20;;;12.50;82.70;;;;;;5081399;28;20312;-77
2023/03/07 09:54:01;;;;;;;0.13;0.13;;;12.50;80.40;;;;;;5102046;28;20016;-76
2023/03/07 09:56:37;;;;;;;0.15;0.15;;;12.90;76.30;;;;;;5101480;28;20671;-77
2023/03/07 09:59:30;;;;;;;0.10;0.10;;;13.40;76.30;;;;;;5100333;28;20020;-83
2023/03/07 10:02:21;;;;;;;0.10;0.10;;;12.90;77.10;;;;;;5101985;28;20019;-76
2023/03/07 10:05:13;;;;;;;0.20;0.20;;;12.80;77.00;;;;;;5100309;28;20450;-76
2023/03/07 10:07:38;;;;;;;0.20;0.20;;;12.80;76.10;;;;;;5100804;28;20023;-78
2023/03/07 10:10:32;;;;;;;0.20;0.20;;;12.80;76.90;;;;;;5079748;28;20482;-77
2023/03/07 10:13:03;;;;;;;0.10;0.10;;;11.70;76.90;;;;;;5084800;28;20088;-77
2023/03/07 10:15:38;;;;;;;0.20;0.20;;;13.00;75.80;;;;;;5098872;28;20039;-76
2023/03/07 10:18:05;;;;;;;0.10;0.10;;;;;;;;;;5100614;28;20309;-76
2023/03/07 10:20:49;;;;;;;2.95;2.75;;;13.60;74.10;;;;;;5101074;28;20103;-77
2023/03/07 10:23:31;;;;;;;2.13;2.03;;;13.00;75.20;;;;;;5099306;28;20418;-77
2023/03/07 10:26:00;;;;;;;0.20;0.20;;;13.40;73.30;;;;;;5098533;28;20197;-76
2023/03/07 10:28:34;;;;;;;0.10;0.10;;;13.60;75.90;;;;;;5096982;28;20267;-80
2023/03/07 10:31:36;;;;;;;0.10;0.10;;;13.30;72.20;;;;;;5098317;28;20019;-84
2023/03/07 10:34:20;;;;;;;0.20;0.20;;;13.20;72.30;;;;;;5074274;28;20059;-80
2023/03/07 10:36:49;;;;;;;0.10;0.10;;;13.60;72.50;;;;;;5098086;28;20023;-77
2023/03/07 10:39:36;;;;;;;0.10;0.10;;;13.60;69.40;;;;;;5098919;28;20103;-77
2023/03/07 10:42:02;;;;;;;0.10;0.10;;;13.40;70.40;;;;;;5081227;28;20132;-77
2023/03/07 10:44:32;;;;;;;0.20;0.20;;;13.50;69.80;;;;;;5105645;28;20129;-77
2023/03/07 10:46:58;;;;;;;0.10;0.10;;;13.20;70.10;;;;;;5082928;28;20020;-77
2023/03/07 10:49:30;;;;;;;0.20;0.20;;;13.50;72.90;;;;;;5098349;28;20012;-79
2023/03/07 10:52:14;;;;;;;0.10;0.10;;;13.80;69.00;;;;;;5097911;28;20012;-78
2023/03/07 10:54:40;;;;;;;;;;;14.20;67.30;;;;;;5098208;28;20716;-75
2023/03/07 10:57:14;;;;;;;0.20;0.20;;;14.10;68.30;;;;;;5097970;28;19935;-75
2023/03/07 10:59:42;;;;;;;0.10;0.10;;;14.70;66.00;;;;;;5097509;28;20050;-75
2023/03/07 11:02:36;;;;;;;0.45;0.45;;;14.60;65.10;;;;;;5097427;28;20039;-74
2023/03/07 11:05:23;;;;;;;0.10;0.10;;;14.60;64.00;;;;;;5097530;28;20016;-75
2023/03/07 11:07:48;;;;;;;0.10;0.10;;;14.90;64.20;;;;;;5057428;28;20040;-75
2023/03/07 11:10:38;;;;;;;0.10;0.10;;;15.10;63.90;;;;;;5057414;28;20035;-75
2023/03/07 11:13:13;;;;;;;0.10;0.10;;;15.00;62.60;;;;;;5072357;28;20028;-75
2023/03/07 11:15:40;;;;;;;0.15;0.15;;;;;;;;;;5057223;28;20093;-75
2023/03/07 11:18:26;;;;;;;0.10;0.10;;;15.00;61.70;;;;;;5057082;28;20025;-78
2023/03/07 11:20:52;;;;;;;0.10;0.10;;;;;;;;;;5059993;28;20430;-75
2023/03/07 11:23:29;;;;;;;0.20;0.20;;;15.20;60.40;;;;;;5062056;28;20036;-76
2023/03/07 11:26:12;;;;;;;0.20;0.20;;;15.90;61.30;;;;;;5061706;28;20044;-76
2023/03/07 11:28:39;;;;;;;1.83;1.75;;;;;;;;;;5060715;28;20060;-77
2023/03/07 11:31:23;;;;;;;0.10;0.10;;;15.30;59.70;;;;;;5061742;28;20312;-75
2023/03/07 11:33:58;;;;;;;0.10;0.10;;;15.50;60.70;;;;;;5060968;28;20033;-76
2023/03/07 11:36:31;;;;;;;0.10;0.10;;;15.20;60.70;;;;;;5060899;28;20016;-79
2023/03/07 11:39:05;;;;;;;0.10;0.10;;;15.30;61.80;;;;;;5059537;28;20514;-75
2023/03/07 11:41:35;;;;;;;0.10;0.10;;;15.50;60.00;;;;;;5060838;28;20028;-80
2023/03/07 11:44:22;;;;;;;0.90;0.90;;;15.60;58.60;;;;;;5059720;28;20024;-75
2023/03/07 11:47:11;;;;;;;0.20;0.20;;;15.60;58.40;;;;;;5061425;28;20036;-75
2023/03/07 11:49:44;;;;;;;0.10;0.10;;;15.90;59.50;;;;;;5060749;28;20024;-76
2023/03/07 11:52:13;;;;;;;0.10;0.10;;;16.10;58.30;;;;;;5060897;28;20391;-76
2023/03/07 11:55:06;;;;;;;0.10;0.10;;;16.10;57.60;;;;;;5060666;28;20483;-75
2023/03/07 11:57:50;;;;;;;0.20;0.20;;;16.30;57.70;;;;;;5059924;28;20083;-76
2023/03/07 12:00:36;;;;;;;0.10;0.10;;;16.20;58.30;;;;;;5060699;28;20031;-76
2023/03/07 12:03:32;;;;;;;0.10;0.10;;;16.70;57.90;;;;;;5058956;28;20636;-76
2023/03/07 12:06:11;;;;;;;0.10;0.10;;;16.90;55.80;;;;;;5074598;28;20048;-77
2023/03/07 12:08:52;;;;;;;0.10;0.10;;;16.90;55.40;;;;;;5101274;28;20304;-76
2023/03/07 12:11:37;;;;;;;0.10;0.10;;;17.20;55.90;;;;;;5100981;28;20024;-78
2023/03/07 12:14:21;;;;;;;0.10;0.10;;;17.60;54.80;;;;;;5100843;28;20132;-76
2023/03/07 12:16:47;;;;;;;0.10;0.10;;;17.30;54.20;;;;;;5100862;28;20122;-75
2023/03/07 12:19:38;;;;;;;0.10;0.10;;;16.90;54.70;;;;;;5101504;28;20102;-75
2023/03/07 12:22:48;;;;;;;0.10;0.10;;;16.50;55.20;;;;;;5101631;28;20031;-81
2023/03/07 12:25:40;;;;;;;0.10;0.10;;;16.20;55.50;;;;;;5099973;28;20042;-75
2023/03/07 12:28:12;;;;;;;0.10;0.10;;;15.80;56.70;;;;;;5101646;28;20046;-77
2023/03/07 12:31:01;;;;;;;0.10;0.10;;;15.40;56.80;;;;;;5100929;28;20038;-77
2023/03/07 12:33:30;;;;;;;0.10;0.10;;;15.20;56.80;;;;;;5100780;28;20050;-78
2023/03/07 12:36:04;;;;;;;0.10;0.10;;;14.90;57.40;;;;;;5100521;28;20099;-82
2023/03/07 12:38:45;;;;;;;0.10;0.10;;;14.60;58.20;;;;;;5100656;28;20020;-77
2023/03/07 12:41:32;;;;;;;0.10;0.10;;;14.70;58.50;;;;;;5100373;28;20327;-77
2023/03/07 12:44:04;;;;;;;0.20;0.20;;;14.70;58.30;;;;;;5100712;28;20027;-78
2023/03/07 12:46:50;;;;;;;0.10;0.10;;;14.90;58.40;;;;;;5100239;28;20020;-77
2023/03/07 12:49:28;;;;;;;0.15;0.15;;;14.80;58.50;;;;;;5100090;28;20085;-80
2023/03/07 12:51:59;;;;;;;0.10;0.10;;;14.80;58.50;;;;;;5081818;28;20058;-76
2023/03/07 12:54:42;;;;;;;0.10;0.10;;;14.90;58.30;;;;;;5100304;28;20043;-77
2023/03/07 12:57:25;;;;;;;0.40;0.40;;;14.90;58.10;;;;;;5100113;28;20036;-76
2023/03/07 12:59:56;;;;;;;0.10;0.10;;;14.90;58.00;;;;;;5098552;28;20058;-80
2023/03/07 13:02:38;;;;;;;0.10;0.10;;;15.70;59.20;;;;;;5099744;28;20138;-76
2023/03/07 13:05:04;;;;;;;0.15;0.15;;;15.80;59.30;;;;;;5099877;28;20205;-78
2023/03/07 13:07:32;;;;;;;0.10;0.10;;;15.70;58.00;;;;;;5100211;28;20122;-78
2023/03/07 13:10:02;;;;;;;0.20;0.20;;;16.10;56.40;;;;;;5099804;28;20546;-76
2023/03/07 13:12:36;;;;;;;0.10;0.10;;;16.10;57.20;;;;;;5097571;28;20360;-75
2023/03/07 13:15:06;;;;;;;0.10;0.10;;;16.30;57.80;;;;;;5099717;28;20038;-75
2023/03/07 13:17:32;;;;;;;0.10;0.10;;;16.00;59.10;;;;;;5099621;28;20506;-80